Time;durP1;ratioP1;P1;durP2;ratioP2;P2;SDS_P1;SDS_P2;PMS_P1;PMS_P2;Temp;Humidity;BMP_temperature;BMP_pressure;BME280_temperature;BME280_humidity;BME280_pressure;Samples;Min_cycle;Max_cycle;Signal;HPM_P1;HPM_P2
2023/04/02 00:05:07;;;;;;;;;;;;;;;6.51;100.00;101055.66;10372475;28;19929;-70
2023/04/02 00:10:25;;;;;;;;;;;;;;;6.66;100.00;101059.47;10374228;28;19926;-70
2023/04/02 00:15:28;;;;;;;;;;;;;;;6.81;100.00;101070.22;10401344;28;19925;-70
2023/04/02 00:20:35;;;;;;;;;;;;;;;6.83;100.00;101084.00;10414470;28;20295;-70
2023/04/02 00:25:41;;;;;;;;;;;;;;;6.81;100.00;101096.25;10402309;28;19925;-70
2023/04/02 00:31:04;;;;;;;;;;;;;;;6.76;100.00;101101.59;10405029;28;19929;-70
2023/04/02 00:36:07;;;;;;;;;;;;;;;6.92;100.00;101114.88;10421143;28;19952;-70
2023/04/02 00:41:12;;;;;;;;;;;;;;;6.78;100.00;101112.81;10366540;28;19932;-70
2023/04/02 00:46:14;;;;;;;;;;;;;;;6.62;100.00;101116.84;10378816;28;19925;-70
2023/04/02 00:51:25;;;;;;;;;;;;;;;6.59;100.00;101123.03;10379138;28;19929;-70
2023/04/02 00:56:30;;;;;;;;;;;;;;;6.64;100.00;101130.66;10401473;28;19932;-70
2023/04/02 01:01:36;;;;;;;;;;;;;;;6.54;100.00;101142.28;10402707;28;19925;-70
2023/04/02 01:06:38;;;;;;;;;;;;;;;6.33;100.00;101153.38;10420645;28;19929;-70
2023/04/02 01:12:10;;;;;;;;;;;;;;;6.40;100.00;101160.97;10419498;28;19933;-70
2023/04/02 01:17:18;;;;;;;;;;;;;;;6.51;100.00;101166.69;10348542;28;19995;-70
2023/04/02 01:22:29;;;;;;;;;;;;;;;6.36;100.00;101172.41;10402442;28;19971;-70
2023/04/02 01:27:33;;;;;;;;;;;;;;;6.27;100.00;101184.81;10401764;28;20008;-70
2023/04/02 01:32:36;;;;;;;;;;;;;;;6.23;100.00;101200.56;10401434;28;19929;-70
2023/04/02 01:37:45;;;;;;;;;;;;;;;6.16;100.00;101207.72;10400945;28;19925;-70
2023/04/02 01:43:06;;;;;;;;;;;;;;;5.98;100.00;101211.75;10401806;28;19968;-70
2023/04/02 01:48:13;;;;;;;;;;;;;;;6.10;100.00;101219.16;10415410;28;19925;-70
2023/04/02 01:53:15;;;;;;;;;;;;;;;5.90;100.00;101224.09;10388555;28;19925;-70
2023/04/02 02:03:23;;;;;;;;;;;;;;;5.87;100.00;101238.03;10334814;28;19925;-67
2023/04/02 02:08:30;;;;;;;;;;;;;;;6.16;100.00;101251.06;10336091;28;19926;-67
2023/04/02 02:13:32;;;;;;;;;;;;;;;5.95;100.00;101255.97;10334882;28;19926;-67
2023/04/02 02:18:35;;;;;;;;;;;;;;;6.13;100.00;101265.00;10334712;28;19926;-67
2023/04/02 02:23:37;;;;;;;;;;;;;;;6.14;100.00;101277.94;10334028;28;19926;-67
2023/04/02 02:28:39;;;;;;;;;;;;;;;6.23;100.00;101291.56;10334256;28;19932;-67
2023/04/02 02:33:43;;;;;;;;;;;;;;;6.25;100.00;101305.38;10335294;28;19929;-67
2023/04/02 02:38:55;;;;;;;;;;;;;;;5.73;100.00;101316.41;10334580;28;19937;-67
2023/04/02 02:44:07;;;;;;;;;;;;;;;5.90;100.00;101330.66;10333781;28;19949;-67
2023/04/02 02:49:12;;;;;;;;;;;;;;;5.67;100.00;101341.72;10334589;28;19926;-67
2023/04/02 02:54:14;;;;;;;;;;;;;;;5.97;100.00;101345.22;10331972;28;20428;-67
2023/04/02 02:59:16;;;;;;;;;;;;;;;5.58;100.00;101346.28;10333192;28;20285;-67
2023/04/02 03:04:21;;;;;;;;;;;;;;;5.64;100.00;101360.81;10333282;28;19976;-67
2023/04/02 03:09:53;;;;;;;;;;;;;;;5.84;100.00;101368.06;10332427;28;20406;-67
2023/04/02 03:15:11;;;;;;;;;;;;;;;5.79;100.00;101369.94;10282021;28;19981;-67
2023/04/02 03:20:15;;;;;;;;;;;;;;;5.64;100.00;101386.81;10333138;28;19973;-67
2023/04/02 03:25:22;;;;;;;;;;;;;;;5.67;100.00;101397.13;10316655;28;19926;-67
2023/04/02 03:30:26;;;;;;;;;;;;;;;5.63;100.00;101407.63;10334085;28;20258;-67
2023/04/02 03:35:33;;;;;;;;;;;;;;;5.67;100.00;101417.06;10332601;28;19926;-67
2023/04/02 03:40:41;;;;;;;;;;;;;;;5.24;100.00;101424.22;10333190;28;19925;-67
2023/04/02 03:45:44;;;;;;;;;;;;;;;5.31;100.00;101441.34;10332399;28;19977;-67
2023/04/02 03:50:50;;;;;;;;;;;;;;;5.49;100.00;101458.19;10331200;28;20347;-67
2023/04/02 03:55:52;;;;;;;;;;;;;;;5.35;100.00;101473.28;10331680;28;19989;-67
2023/04/02 04:00:56;;;;;;;;;;;;;;;5.06;100.00;101482.63;10338348;28;20423;-67
2023/04/02 04:06:00;;;;;;;;;;;;;;;5.07;100.00;101488.69;10339800;28;19976;-67
2023/04/02 04:11:05;;;;;;;;;;;;;;;5.32;100.00;101496.72;10339667;28;19930;-67
2023/04/02 04:16:08;;;;;;;;;;;;;;;5.15;100.00;101513.56;10339362;28;19926;-67
2023/04/02 04:21:14;;;;;;;;;;;;;;;5.30;100.00;101521.88;10339263;28;19933;-67
2023/04/02 04:26:18;;;;;;;;;;;;;;;5.22;100.00;101527.25;10339576;28;19926;-67
2023/04/02 04:31:23;;;;;;;;;;;;;;;5.15;100.00;101539.50;10339307;28;19969;-67
2023/04/02 04:36:28;;;;;;;;;;;;;;;4.94;100.00;101550.38;10322137;28;19996;-67
2023/04/02 04:41:33;;;;;;;;;;;;;;;4.97;100.00;101552.91;10338470;28;20435;-67
2023/04/02 04:46:48;;;;;;;;;;;;;;;4.92;100.00;101565.13;10338254;28;19925;-67
2023/04/02 04:51:52;;;;;;;;;;;;;;;4.95;100.00;101571.09;10338620;28;20000;-67
2023/04/02 04:56:55;;;;;;;;;;;;;;;5.26;100.00;101593.81;10338513;28;19976;-67
2023/04/02 05:02:03;;;;;;;;;;;;;;;5.04;100.00;101601.19;10337091;28;19926;-67
2023/04/02 05:07:11;;;;;;;;;;;;;;;4.92;100.00;101610.09;10338617;28;19930;-67
2023/04/02 05:12:26;;;;;;;;;;;;;;;4.72;100.00;101630.41;10338271;28;19926;-67
2023/04/02 05:17:41;;;;;;;;;;;;;;;4.73;100.00;101640.75;10338829;28;19952;-67
2023/04/02 05:23:02;;;;;;;;;;;;;;;4.82;100.00;101653.56;10337540;28;19972;-67
2023/04/02 05:28:05;;;;;;;;;;;;;;;4.68;100.00;101662.50;10336935;28;20408;-67
2023/04/02 05:33:18;;;;;;;;;;;;;;;4.35;100.00;101677.75;10320961;28;19933;-67
2023/04/02 05:38:21;;;;;;;;;;;;;;;4.34;100.00;101686.41;10336259;28;20310;-67
2023/04/02 05:43:23;;;;;;;;;;;;;;;4.34;100.00;101689.00;10335888;28;19980;-67
2023/04/02 05:48:27;;;;;;;;;;;;;;;4.19;100.00;101703.94;10319921;28;19973;-67
2023/04/02 05:53:39;;;;;;;;;;;;;;;4.45;100.00;101719.09;10335670;28;20361;-67
2023/04/02 05:58:41;;;;;;;;;;;;;;;4.18;100.00;101730.75;10316433;28;19926;-67
2023/04/02 06:03:49;;;;;;;;;;;;;;;4.19;100.00;101740.25;10336357;28;19932;-67
2023/04/02 06:08:55;;;;;;;;;;;;;;;4.12;100.00;101756.78;10334224;28;20296;-67
2023/04/02 06:13:57;;;;;;;;;;;;;;;3.82;100.00;101755.50;10335485;28;19925;-67
2023/04/02 06:18:59;;;;;;;;;;;;;;;4.08;100.00;101763.75;10333927;28;19973;-67
2023/04/02 06:24:02;;;;;;;;;;;;;;;4.02;100.00;101770.75;10334084;28;20365;-67
2023/04/02 06:29:05;;;;;;;;;;;;;;;4.25;100.00;101788.53;10336229;28;19953;-67
2023/04/02 06:34:18;;;;;;;;;;;;;;;4.02;100.00;101813.06;10333945;28;19926;-67
2023/04/02 06:39:21;;;;;;;;;;;;;;;4.26;100.00;101823.97;10333471;28;20362;-67
2023/04/02 06:44:26;;;;;;;;;;;;;;;4.04;100.00;101832.03;10335601;28;19926;-67
2023/04/02 06:49:39;;;;;;;;;;;;;;;4.26;100.00;101842.94;10334233;28;19925;-67
2023/04/02 06:54:41;;;;;;;;;;;;;;;4.26;100.00;101860.25;10331563;28;19972;-66
2023/04/02 06:59:43;;;;;;;;;;;;;;;4.39;100.00;101869.56;10366564;28;20296;-67
2023/04/02 07:04:45;;;;;;;;;;;;;;;4.19;100.00;101875.03;10333957;28;19933;-67
2023/04/02 07:09:48;;;;;;;;;;;;;;;4.26;100.00;101888.78;10329638;28;19926;-67
2023/04/02 07:14:50;;;;;;;;;;;;;;;4.15;100.00;101899.25;10363455;28;19929;-67
2023/04/02 07:19:52;;;;;;;;;;;;;;;4.28;100.00;101920.72;10375215;28;19979;-67
2023/04/02 07:24:55;;;;;;;;;;;;;;;4.18;100.00;101921.72;10349341;28;19972;-67
2023/04/02 07:29:57;;;;;;;;;;;;;;;3.99;100.00;101934.06;10316819;28;19930;-67
2023/04/02 07:35:00;;;;;;;;;;;;;;;3.73;100.00;101940.34;10339105;28;19977;-67
2023/04/02 07:40:05;;;;;;;;;;;;;;;4.36;100.00;101950.00;10342560;28;19926;-67
2023/04/02 07:45:07;;;;;;;;;;;;;;;4.24;100.00;101953.59;10342395;28;19933;-67
2023/04/02 07:50:09;;;;;;;;;;;;;;;4.33;100.00;101968.19;10340483;28;19930;-68
2023/04/02 07:55:12;;;;;;;;;;;;;;;4.17;100.00;101971.81;10340854;28;19926;-69
2023/04/02 08:00:15;;;;;;;;;;;;;;;4.26;100.00;101977.75;10340796;28;19957;-69
2023/04/02 08:05:18;;;;;;;;;;;;;;;4.22;100.00;101977.81;10324451;28;19925;-68
2023/04/02 08:10:20;;;;;;;;;;;;;;;4.31;100.00;101985.50;10340585;28;20410;-68
2023/04/02 08:15:22;;;;;;;;;;;;;;;4.63;100.00;101992.00;10341302;28;19980;-68
2023/04/02 08:20:25;;;;;;;;;;;;;;;4.54;100.00;102000.78;10341070;28;19930;-68
2023/04/02 08:25:27;;;;;;;;;;;;;;;4.44;100.00;102018.19;10340906;28;19981;-69
2023/04/02 08:30:29;;;;;;;;;;;;;;;4.44;100.00;102025.97;10339995;28;19933;-68
2023/04/02 08:35:31;;;;;;;;;;;;;;;4.54;100.00;102038.81;10339886;28;20373;-68
2023/04/02 08:40:37;;;;;;;;;;;;;;;4.76;100.00;102039.41;10340251;28;19930;-68
2023/04/02 08:45:58;;;;;;;;;;;;;;;4.69;100.00;102053.31;10320988;28;19926;-68
2023/04/02 08:51:01;;;;;;;;;;;;;;;4.72;100.00;102066.25;10339320;28;19981;-69
2023/04/02 08:56:16;;;;;;;;;;;;;;;4.80;100.00;102073.06;10339096;28;20348;-69
2023/04/02 09:01:33;;;;;;;;;;;;;;;5.32;99.45;102075.81;10338337;28;19933;-69
2023/04/02 09:06:37;;;;;;;;;;;;;;;4.94;99.05;102101.44;10338626;28;20020;-69
2023/04/02 09:11:53;;;;;;;;;;;;;;;5.06;100.00;102115.13;10339190;28;19926;-69
2023/04/02 09:16:57;;;;;;;;;;;;;;;5.18;99.32;102107.19;10336007;28;19926;-69
2023/04/02 09:22:18;;;;;;;;;;;;;;;5.36;98.33;102111.25;10336450;28;19933;-69
2023/04/02 09:27:21;;;;;;;;;;;;;;;5.31;96.20;102121.72;10337908;28;20304;-69
2023/04/02 09:32:26;;;;;;;;;;;;;;;5.42;95.74;102126.75;10336622;28;19926;-69
2023/04/02 09:37:29;;;;;;;;;;;;;;;5.73;97.96;102134.06;10336906;28;20365;-69
2023/04/02 09:42:36;;;;;;;;;;;;;;;5.39;94.63;102138.03;10337254;28;19926;-69
2023/04/02 09:47:39;;;;;;;;;;;;;;;5.49;93.68;102153.50;10336606;28;20000;-69
2023/04/02 09:52:43;;;;;;;;;;;;;;;5.77;92.45;102166.94;10336206;28;19926;-69
2023/04/02 09:57:46;;;;;;;;;;;;;;;6.08;91.10;102182.06;10335415;28;19925;-69
2023/04/02 10:03:03;;;;;;;;;;;;;;;6.15;90.53;102181.06;10336501;28;19925;-69
2023/04/02 10:08:07;;;;;;;;;;;;;;;6.31;88.91;102192.09;10336081;28;19929;-69
2023/04/02 10:13:17;;;;;;;;;;;;;;;6.06;87.85;102195.09;10334479;28;20282;-69
2023/04/02 10:18:22;;;;;;;;;;;;;;;6.05;90.11;102202.91;10335424;28;19929;-69
2023/04/02 10:23:25;;;;;;;;;;;;;;;6.41;91.34;102214.47;10335744;28;19996;-69
2023/04/02 10:28:48;;;;;;;;;;;;;;;6.53;90.12;102226.41;10335439;28;19925;-69
2023/04/02 10:33:51;;;;;;;;;;;;;;;6.37;90.20;102236.22;10335291;28;19929;-69
2023/04/02 10:38:54;;;;;;;;;;;;;;;6.47;90.24;102245.59;10332599;28;19925;-69
2023/04/02 10:43:57;;;;;;;;;;;;;;;5.98;89.63;102253.31;10317948;28;19926;-69
2023/04/02 10:49:21;;;;;;;;;;;;;;;6.06;87.77;102259.25;10334407;28;19926;-69
2023/04/02 10:54:45;;;;;;;;;;;;;;;6.36;88.74;102270.06;10336756;28;20368;-69
2023/04/02 10:59:48;;;;;;;;;;;;;;;6.54;88.78;102277.56;10344175;28;20453;-69
2023/04/02 11:04:50;;;;;;;;;;;;;;;6.42;85.71;102272.56;10333146;28;19929;-69
2023/04/02 11:09:53;;;;;;;;;;;;;;;6.65;85.08;102280.81;10332583;28;19926;-68
2023/04/02 11:14:56;;;;;;;;;;;;;;;8.02;85.91;102281.59;10315599;28;19926;-69
2023/04/02 11:20:18;;;;;;;;;;;;;;;9.90;77.31;102285.31;10333073;28;19972;-69
2023/04/02 11:25:20;;;;;;;;;;;;;;;12.31;74.07;102275.00;10334034;28;19938;-70
2023/04/02 11:30:26;;;;;;;;;;;;;;;12.62;70.46;102281.59;10317339;28;19932;-70
2023/04/02 11:35:31;;;;;;;;;;;;;;;13.81;66.18;102281.59;10316605;28;20329;-70
2023/04/02 11:40:41;;;;;;;;;;;;;;;13.29;64.81;102282.19;10334393;28;19941;-70
2023/04/02 11:45:43;;;;;;;;;;;;;;;14.24;65.17;102290.91;10333655;28;19926;-70
2023/04/02 11:50:54;;;;;;;;;;;;;;;12.42;62.11;102301.69;10333531;28;20385;-70
2023/04/02 11:55:57;;;;;;;;;;;;;;;12.48;63.80;102290.06;10300283;28;20281;-70
2023/04/02 12:01:18;;;;;;;;;;;;;;;13.47;59.68;102307.69;10333679;28;19925;-70
2023/04/02 12:06:30;;;;;;;;;;;;;;;13.94;61.67;102315.16;10332659;28;19929;-70
2023/04/02 12:11:36;;;;;;;;;;;;;;;15.45;57.70;102312.00;10316602;28;19925;-70
2023/04/02 12:16:38;;;;;;;;;;;;;;;17.02;55.94;102326.06;10315869;28;19949;-71
2023/04/02 12:21:43;;;;;;;;;;;;;;;16.18;54.13;102332.66;10339408;28;19930;-71
2023/04/02 12:26:46;;;;;;;;;;;;;;;15.68;56.35;102339.78;10323570;28;19926;-71
2023/04/02 12:31:48;;;;;;;;;;;;;;;15.74;52.68;102341.25;10340659;28;19926;-71
2023/04/02 12:36:58;;;;;;;;;;;;;;;17.35;50.08;102330.22;10340140;28;19930;-71
2023/04/02 12:42:01;;;;;;;;;;;;;;;18.32;49.50;102340.81;10323355;28;19957;-71
2023/04/02 12:47:03;;;;;;;;;;;;;;;18.55;51.37;102341.94;10339923;28;19926;-71
2023/04/02 12:52:06;;;;;;;;;;;;;;;18.44;48.09;102347.16;10339878;28;19930;-71
2023/04/02 12:57:21;;;;;;;;;;;;;;;18.44;48.01;102346.28;10321908;28;20381;-71
2023/04/02 13:02:25;;;;;;;;;;;;;;;19.22;47.79;102346.31;10338955;28;19930;-72
2023/04/02 13:07:29;;;;;;;;;;;;;;;17.83;47.23;102354.56;10321523;28;20362;-72
2023/04/02 13:12:32;;;;;;;;;;;;;;;19.38;46.92;102348.72;10339133;28;19930;-72
2023/04/02 13:17:46;;;;;;;;;;;;;;;19.30;46.94;102349.28;10321754;28;19926;-71
2023/04/02 13:22:48;;;;;;;;;;;;;;;19.15;46.65;102349.47;10305780;28;19980;-72
2023/04/02 13:27:52;;;;;;;;;;;;;;;19.96;44.80;102353.53;10337933;28;20443;-72
2023/04/02 13:32:55;;;;;;;;;;;;;;;19.38;44.05;102351.38;10336563;28;19925;-72
2023/04/02 13:37:57;;;;;;;;;;;;;;;19.38;44.78;102346.06;10320405;28;19925;-72
2023/04/02 13:43:01;;;;;;;;;;;;;;;19.62;47.08;102354.13;10338146;28;20101;-72
2023/04/02 13:48:04;;;;;;;;;;;;;;;18.47;46.29;102346.91;10337028;28;20336;-72
2023/04/02 13:53:07;;;;;;;;;;;;;;;18.94;44.42;102350.00;10320408;28;19953;-72
2023/04/02 13:58:11;;;;;;;;;;;;;;;18.91;46.03;102348.44;10320472;28;19926;-72
2023/04/02 14:03:18;;;;;;;;;;;;;;;19.62;50.24;102356.78;10319182;28;19934;-72
2023/04/02 14:08:23;;;;;;;;;;;;;;;20.27;44.24;102372.53;10319093;28;19926;-72
2023/04/02 14:13:28;;;;;;;;;;;;;;;18.92;44.03;102363.38;10344996;23;20061;-72
2023/04/02 14:18:39;;;;;;;;;;;;;;;20.09;42.31;102372.06;10335215;28;20385;-72
2023/04/02 14:23:45;;;;;;;;;;;;;;;20.09;42.12;102377.41;10335307;28;20021;-72
2023/04/02 14:29:06;;;;;;;;;;;;;;;21.64;42.89;102380.78;10334455;28;20301;-72
2023/04/02 14:34:12;;;;;;;;;;;;;;;20.48;42.20;102384.25;10336147;28;19934;-72
2023/04/02 14:39:14;;;;;;;;;;;;;;;19.65;41.66;102391.09;10335891;28;19925;-72
2023/04/02 14:44:16;;;;;;;;;;;;;;;19.70;41.98;102389.91;10334687;28;20328;-72
2023/04/02 14:49:23;;;;;;;;;;;;;;;21.08;40.01;102379.75;10335472;28;19926;-72
2023/04/02 14:54:30;;;;;;;;;;;;;;;19.70;42.15;102400.53;10302201;28;19926;-72
2023/04/02 14:59:34;;;;;;;;;;;;;;;19.26;42.06;102389.41;10318056;28;19953;-72
2023/04/02 15:04:40;;;;;;;;;;;;;;;20.60;41.53;102398.47;10317957;28;19976;-72
2023/04/02 15:10:01;;;;;;;;;;;;;;;20.72;41.14;102400.22;10333812;28;19976;-72
2023/04/02 15:15:06;;;;;;;;;;;;;;;19.85;40.54;102403.00;10317340;28;19973;-72
2023/04/02 15:20:13;;;;;;;;;;;;;;;20.23;40.96;102414.47;10333666;28;19937;-72
2023/04/02 15:25:15;;;;;;;;;;;;;;;19.41;41.46;102414.06;10301489;28;19941;-72
2023/04/02 15:30:28;;;;;;;;;;;;;;;20.01;41.58;102416.03;10334525;28;19933;-72
2023/04/02 15:35:49;;;;;;;;;;;;;;;18.93;41.79;102418.16;10332792;28;19996;-72
2023/04/02 15:40:54;;;;;;;;;;;;;;;19.52;41.43;102426.59;10334501;28;19926;-72
2023/04/02 15:46:15;;;;;;;;;;;;;;;19.29;41.81;102421.06;10333709;28;20345;-72
2023/04/02 15:51:21;;;;;;;;;;;;;;;17.46;41.37;102426.56;10334102;28;19997;-72
2023/04/02 15:56:42;;;;;;;;;;;;;;;18.21;42.80;102438.78;10338775;28;19926;-72
2023/04/02 16:01:50;;;;;;;;;;;;;;;19.84;42.23;102442.97;10341953;28;19938;-72
2023/04/02 16:07:12;;;;;;;;;;;;;;;17.31;43.46;102446.03;10341676;28;19953;-72
2023/04/02 16:12:15;;;;;;;;;;;;;;;18.87;42.08;102449.56;10341585;28;19929;-72
2023/04/02 16:17:18;;;;;;;;;;;;;;;16.23;43.82;102461.91;10340767;28;19980;-72
2023/04/02 16:22:27;;;;;;;;;;;;;;;16.60;44.26;102481.84;10324791;28;19973;-72
2023/04/02 16:27:31;;;;;;;;;;;;;;;16.59;43.32;102481.94;10340164;28;20016;-72
2023/04/02 16:32:43;;;;;;;;;;;;;;;15.40;44.64;102483.78;10322925;28;19932;-72
2023/04/02 16:37:47;;;;;;;;;;;;;;;15.21;45.86;102486.53;10340490;28;19972;-71
2023/04/02 16:42:52;;;;;;;;;;;;;;;15.67;45.44;102499.16;10340345;28;19926;-72
2023/04/02 16:47:59;;;;;;;;;;;;;;;16.07;46.00;102507.66;10339413;28;19926;-71
2023/04/02 16:53:20;;;;;;;;;;;;;;;15.57;45.62;102506.69;10322923;28;19929;-72
2023/04/02 16:58:42;;;;;;;;;;;;;;;17.06;42.23;102518.06;10338223;28;20344;-72
2023/04/02 17:03:56;;;;;;;;;;;;;;;16.14;44.33;102522.22;10338287;28;19933;-71
2023/04/02 17:09:13;;;;;;;;;;;;;;;14.78;47.89;102537.88;10339392;28;19988;-71
2023/04/02 17:14:26;;;;;;;;;;;;;;;16.70;42.90;102543.84;10338456;28;19930;-71
2023/04/02 17:19:31;;;;;;;;;;;;;;;15.00;44.35;102549.09;10321488;28;19926;-71
2023/04/02 17:24:38;;;;;;;;;;;;;;;11.24;54.96;102555.28;10336997;28;20083;-71
2023/04/02 17:29:41;;;;;;;;;;;;;;;10.80;57.56;102560.16;10337368;28;19953;-71
2023/04/02 17:34:43;;;;;;;;;;;;;;;10.37;58.86;102563.13;10321195;28;19933;-71
2023/04/02 17:39:53;;;;;;;;;;;;;;;9.92;61.22;102571.31;10338211;28;19953;-71
2023/04/02 17:45:14;;;;;;;;;;;;;;;9.51;62.83;102591.50;10336156;28;20380;-71
2023/04/02 17:50:16;;;;;;;;;;;;;;;9.20;62.70;102597.47;10337624;28;19972;-71
2023/04/02 17:55:18;;;;;;;;;;;;;;;8.93;65.70;102606.78;10337535;28;19926;-71
2023/04/02 18:00:23;;;;;;;;;;;;;;;8.82;64.58;102609.59;10337391;28;19926;-70
2023/04/02 18:05:31;;;;;;;;;;;;;;;8.40;66.72;102613.91;10336024;28;19926;-70
2023/04/02 18:10:33;;;;;;;;;;;;;;;8.03;67.49;102619.81;10336466;28;20431;-70
2023/04/02 18:15:36;;;;;;;;;;;;;;;7.52;69.99;102626.72;10334604;28;19932;-70
2023/04/02 18:20:38;;;;;;;;;;;;;;;7.37;71.79;102635.63;10334607;28;19996;-70
2023/04/02 18:25:59;;;;;;;;;;;;;;;6.97;74.18;102656.13;10298025;28;20432;-70
2023/04/02 18:31:20;;;;;;;;;;;;;;;6.95;72.91;102650.94;10334242;28;19944;-70
2023/04/02 18:36:23;;;;;;;;;;;;;;;6.59;75.27;102657.44;10335272;28;19930;-70
2023/04/02 18:41:36;;;;;;;;;;;;;;;6.29;77.39;102665.56;10335418;28;19933;-70
2023/04/02 18:46:49;;;;;;;;;;;;;;;6.17;77.62;102672.59;10317932;28;19930;-69
2023/04/02 18:51:53;;;;;;;;;;;;;;;6.06;78.21;102676.16;10318281;28;19964;-69
2023/04/02 18:56:56;;;;;;;;;;;;;;;5.89;78.12;102685.81;10300993;28;19933;-69
2023/04/02 19:01:59;;;;;;;;;;;;;;;5.79;81.49;102700.59;10335171;28;20017;-69
2023/04/02 19:07:04;;;;;;;;;;;;;;;5.66;82.45;102706.75;10332643;28;20440;-69
2023/04/02 19:12:11;;;;;;;;;;;;;;;5.47;84.50;102704.25;10334873;28;19926;-69
2023/04/02 19:17:16;;;;;;;;;;;;;;;5.27;85.87;102706.97;10315428;28;20366;-69
2023/04/02 19:22:21;;;;;;;;;;;;;;;5.17;86.56;102719.13;10333352;28;20432;-69
2023/04/02 19:27:26;;;;;;;;;;;;;;;4.94;89.19;102731.31;10333715;28;19953;-69
2023/04/02 19:32:35;;;;;;;;;;;;;;;4.84;89.65;102733.94;10343029;28;19926;-69
2023/04/02 19:37:38;;;;;;;;;;;;;;;4.90;88.56;102742.59;10342846;28;20358;-69
2023/04/02 19:42:42;;;;;;;;;;;;;;;4.93;87.13;102747.78;10324436;28;19926;-69
2023/04/02 19:47:44;;;;;;;;;;;;;;;4.88;86.83;102749.53;10341644;28;19926;-69
2023/04/02 19:52:46;;;;;;;;;;;;;;;4.75;88.00;102759.91;10335869;28;19926;-69
2023/04/02 19:57:48;;;;;;;;;;;;;;;4.49;90.33;102766.84;10316555;28;19926;-69
2023/04/02 20:02:52;;;;;;;;;;;;;;;4.49;90.94;102770.34;10338357;28;19930;-69
2023/04/02 20:07:54;;;;;;;;;;;;;;;4.34;91.56;102775.50;10340435;28;19932;-69
2023/04/02 20:12:57;;;;;;;;;;;;;;;4.27;93.44;102772.91;10340950;28;19926;-69
2023/04/02 20:17:59;;;;;;;;;;;;;;;4.29;92.42;102778.09;10340628;28;19948;-69
2023/04/02 20:23:02;;;;;;;;;;;;;;;4.32;91.78;102787.59;10340742;28;19973;-69
2023/04/02 20:28:04;;;;;;;;;;;;;;;4.00;95.23;102786.72;10338938;28;19929;-69
2023/04/02 20:33:06;;;;;;;;;;;;;;;4.39;93.05;102794.53;10340159;28;20432;-68
2023/04/02 20:38:10;;;;;;;;;;;;;;;4.25;93.48;102795.41;10339149;28;19930;-68
2023/04/02 20:43:12;;;;;;;;;;;;;;;4.02;93.38;102802.28;10321512;28;20404;-68
2023/04/02 20:48:15;;;;;;;;;;;;;;;3.89;95.02;102801.38;10309515;28;19993;-68
2023/04/02 20:53:18;;;;;;;;;;;;;;;3.81;95.55;102801.34;10316082;28;19926;-68
2023/04/02 20:58:20;;;;;;;;;;;;;;;3.83;97.34;102810.00;10298984;28;20313;-68
2023/04/02 21:03:22;;;;;;;;;;;;;;;3.78;96.82;102816.88;10298320;28;19930;-68
2023/04/02 21:08:24;;;;;;;;;;;;;;;3.53;97.48;102824.56;10338288;28;19925;-68
2023/04/02 21:13:30;;;;;;;;;;;;;;;3.54;96.84;102828.88;10339043;28;19925;-68
2023/04/02 21:18:32;;;;;;;;;;;;;;;3.41;100.00;102842.63;10338201;28;19934;-68
2023/04/02 21:23:35;;;;;;;;;;;;;;;3.59;99.44;102836.66;10336987;28;19925;-68
2023/04/02 21:28:37;;;;;;;;;;;;;;;3.49;97.96;102840.06;10337758;28;19930;-68
2023/04/02 21:33:40;;;;;;;;;;;;;;;3.49;98.55;102837.47;10337264;28;20378;-68
2023/04/02 21:38:47;;;;;;;;;;;;;;;3.38;100.00;102858.16;10321013;28;19930;-68
2023/04/02 21:43:49;;;;;;;;;;;;;;;3.26;100.00;102861.53;10321026;28;19926;-68
2023/04/02 21:48:52;;;;;;;;;;;;;;;3.29;100.00;102861.53;10337032;28;19988;-68
2023/04/02 21:53:54;;;;;;;;;;;;;;;3.45;100.00;102859.06;10319429;28;19930;-68
2023/04/02 21:58:57;;;;;;;;;;;;;;;3.25;100.00;102874.47;10319441;28;19926;-68
2023/04/02 22:04:00;;;;;;;;;;;;;;;3.06;100.00;102876.03;10335990;28;20266;-68
2023/04/02 22:09:04;;;;;;;;;;;;;;;3.31;100.00;102877.97;10336727;28;19930;-68
2023/04/02 22:14:06;;;;;;;;;;;;;;;3.14;100.00;102879.56;10318924;28;20400;-68
2023/04/02 22:19:10;;;;;;;;;;;;;;;3.09;100.00;102882.13;10335262;28;19929;-68
2023/04/02 22:24:13;;;;;;;;;;;;;;;3.17;100.00;102887.34;10335759;28;19929;-68
2023/04/02 22:29:15;;;;;;;;;;;;;;;2.99;100.00;102890.66;10302381;28;19933;-68
2023/04/02 22:34:18;;;;;;;;;;;;;;;2.93;100.00;102895.81;10336124;28;19926;-68
2023/04/02 22:39:20;;;;;;;;;;;;;;;2.96;100.00;102896.69;10318187;28;20381;-68
2023/04/02 22:44:22;;;;;;;;;;;;;;;2.76;100.00;102899.13;10333666;28;20324;-68
2023/04/02 22:49:25;;;;;;;;;;;;;;;2.76;100.00;102901.69;10335566;28;19926;-68
2023/04/02 22:54:27;;;;;;;;;;;;;;;3.02;100.00;102901.03;10334321;28;20389;-68
2023/04/02 22:59:29;;;;;;;;;;;;;;;2.84;100.00;102901.78;10297922;28;19980;-68
2023/04/02 23:04:31;;;;;;;;;;;;;;;2.66;100.00;102911.97;10298954;28;19933;-68
2023/04/02 23:09:34;;;;;;;;;;;;;;;2.66;100.00;102899.03;10334943;28;19925;-68
2023/04/02 23:14:36;;;;;;;;;;;;;;;2.75;100.00;102909.44;10334363;28;19988;-68
2023/04/02 23:19:38;;;;;;;;;;;;;;;2.63;100.00;102910.19;10333432;28;19926;-68
2023/04/02 23:24:41;;;;;;;;;;;;;;;2.41;100.00;102912.56;10316776;28;19926;-68
2023/04/02 23:29:43;;;;;;;;;;;;;;;2.52;100.00;102914.38;10334606;28;19929;-68
2023/04/02 23:34:45;;;;;;;;;;;;;;;2.39;100.00;102916.84;10333756;28;19925;-68
2023/04/02 23:39:47;;;;;;;;;;;;;;;2.57;100.00;102916.19;10333071;28;19930;-68
2023/04/02 23:44:49;;;;;;;;;;;;;;;2.43;100.00;102920.34;10333559;28;19926;-68
2023/04/02 23:49:52;;;;;;;;;;;;;;;2.31;100.00;102921.06;10334362;28;19976;-68
2023/04/02 23:54:54;;;;;;;;;;;;;;;2.24;100.00;102924.44;10333696;28;19926;-68
2023/04/02 23:59:56;;;;;;;;;;;;;;;2.31;100.00;102933.13;10334139;28;19926;-68
